Time;durP1;ratioP1;P1;durP2;ratioP2;P2;SDS_P1;SDS_P2;PMS_P1;PMS_P2;Temp;Humidity;BMP_temperature;BMP_pressure;BME280_temperature;BME280_humidity;BME280_pressure;Samples;Min_cycle;Max_cycle;Signal;HPM_P1;HPM_P2
2021/10/20 00:01:05;;;;;;;21.23;11.43;;;;;;;0.68;76.98;101735.75;1802844;79;21378;-60
2021/10/20 00:04:12;;;;;;;28.85;12.75;;;;;;;0.65;76.87;101730.53;1803041;79;21371;-60
2021/10/20 00:07:18;;;;;;;35.05;15.53;;;;;;;0.62;76.96;101737.43;1796096;79;21308;-62
2021/10/20 00:10:24;;;;;;;44.40;17.32;;;;;;;0.60;77.04;101739.36;1803170;79;21205;-60
2021/10/20 00:13:29;;;;;;;43.52;18.15;;;;;;;0.59;77.14;101731.33;1801505;79;21371;-61
2021/10/20 00:16:36;;;;;;;37.53;16.23;;;;;;;0.59;77.34;101734.02;1803176;79;21224;-63
2021/10/20 00:19:41;;;;;;;44.40;17.30;;;;;;;0.59;77.37;101744.33;1803160;79;21395;-60
2021/10/20 00:22:47;;;;;;;42.50;18.00;;;;;;;0.59;77.40;101747.48;1803284;79;21703;-61
2021/10/20 00:25:56;;;;;;;40.05;17.17;;;;;;;0.60;77.56;101739.82;1802840;79;21178;-61
2021/10/20 00:29:02;;;;;;;41.15;16.10;;;;;;;0.64;77.72;101740.92;1803197;79;21699;-61
2021/10/20 00:32:07;;;;;;;44.88;16.82;;;;;;;0.66;77.62;101748.46;1803132;79;21223;-61
2021/10/20 00:35:14;;;;;;;40.33;15.28;;;;;;;0.64;77.36;101757.09;1803048;79;21339;-61
2021/10/20 00:38:20;;;;;;;46.37;14.98;;;;;;;0.64;77.35;101759.78;1802969;79;21824;-61
2021/10/20 00:41:25;;;;;;;39.98;15.38;;;;;;;0.62;77.35;101754.94;1802852;79;21358;-60
2021/10/20 00:44:31;;;;;;;39.83;15.60;;;;;;;0.60;77.33;101750.13;1803211;79;21391;-60
2021/10/20 00:47:36;;;;;;;36.88;15.50;;;;;;;0.56;77.10;101759.31;1802965;79;21204;-61
2021/10/20 00:50:41;;;;;;;30.88;13.22;;;;;;;0.55;77.36;101765.66;1802983;79;21379;-60
2021/10/20 00:53:47;;;;;;;33.13;13.55;;;;;;;0.51;77.22;101761.36;1802960;79;21178;-61
2021/10/20 00:56:54;;;;;;;28.50;13.78;;;;;;;0.46;76.96;101769.30;1803270;79;21363;-61
2021/10/20 01:00:01;;;;;;;23.38;12.20;;;;;;;0.39;76.90;101771.42;1802942;79;21828;-61
2021/10/20 01:03:07;;;;;;;30.00;12.73;;;;;;;0.35;77.02;101761.73;1802956;79;21316;-60
2021/10/20 01:06:16;;;;;;;25.55;12.37;;;;;;;0.33;77.00;101768.16;1803187;79;21362;-61
2021/10/20 01:09:22;;;;;;;26.42;12.40;;;;;;;0.29;77.09;101760.71;1803075;79;21379;-61
2021/10/20 01:12:28;;;;;;;25.32;11.80;;;;;;;0.28;77.12;101761.67;1803076;79;21213;-60
2021/10/20 01:15:35;;;;;;;30.95;12.70;;;;;;;0.28;77.22;101767.06;1804953;79;21319;-60
2021/10/20 01:18:41;;;;;;;24.32;12.53;;;;;;;0.32;77.39;101766.44;1805084;79;21842;-62
2021/10/20 01:21:47;;;;;;;28.35;12.88;;;;;;;0.28;77.15;101765.71;1805062;79;21194;-60
2021/10/20 01:24:52;;;;;;;30.70;14.00;;;;;;;0.23;76.97;101764.19;1804730;79;21237;-62
2021/10/20 01:27:58;;;;;;;28.38;14.35;;;;;;;0.22;77.16;101766.02;1797049;79;21336;-61
2021/10/20 01:31:03;;;;;;;29.25;13.22;;;;;;;0.22;77.24;101766.02;1804996;79;21343;-61
2021/10/20 01:34:10;;;;;;;25.90;12.98;;;;;;;0.25;77.43;101773.06;1804612;79;21334;-60
2021/10/20 01:37:16;;;;;;;26.93;13.60;;;;;;;0.24;77.37;101772.67;1804826;79;21327;-61
2021/10/20 01:40:21;;;;;;;29.48;14.98;;;;;;;0.25;77.43;101771.25;1804874;79;21328;-61
2021/10/20 01:43:26;;;;;;;30.72;14.58;;;;;;;0.25;77.30;101765.87;1805552;79;21166;-61
2021/10/20 01:46:32;;;;;;;27.95;15.08;;;;;;;0.23;77.19;101769.57;1804882;79;21383;-61
2021/10/20 01:49:39;;;;;;;27.52;14.20;;;;;;;0.18;77.00;101767.58;1804872;79;21360;-62
2021/10/20 01:52:46;;;;;;;22.73;12.05;;;;;;;0.16;77.02;101770.84;1804516;79;21165;-62
2021/10/20 01:55:54;;;;;;;23.60;12.25;;;;;;;0.17;77.24;101777.50;1804734;79;21264;-60
2021/10/20 01:59:01;;;;;;;23.10;12.53;;;;;;;0.17;77.14;101781.53;1805703;79;21319;-61
2021/10/20 02:02:05;;;;;;;24.18;12.47;;;;;;;0.10;76.90;101769.31;1804962;79;21350;-62
2021/10/20 02:05:15;;;;;;;23.42;11.35;;;;;;;0.06;76.91;101773.12;1804642;79;21194;-62
2021/10/20 02:08:20;;;;;;;22.48;12.58;;;;;;;-0.01;76.72;101768.97;1804947;79;21177;-62
2021/10/20 02:11:26;;;;;;;20.65;12.65;;;;;;;-0.07;76.88;101760.73;1804835;79;21277;-59
2021/10/20 02:14:34;;;;;;;23.32;11.53;;;;;;;-0.04;77.12;101759.70;1804314;79;21316;-59
2021/10/20 02:17:41;;;;;;;28.98;12.85;;;;;;;-0.05;77.13;101768.73;1803051;79;21316;-59
2021/10/20 02:20:47;;;;;;;24.70;12.23;;;;;;;-0.10;76.96;101764.05;1803374;79;21680;-60
2021/10/20 02:23:53;;;;;;;25.55;11.68;;;;;;;-0.13;77.14;101770.92;1803379;79;21181;-61
2021/10/20 02:26:57;;;;;;;29.37;12.63;;;;;;;-0.10;77.39;101770.77;1802984;79;21186;-61
2021/10/20 02:30:03;;;;;;;21.12;11.73;;;;;;;-0.07;77.44;101776.89;1803136;79;21204;-59
2021/10/20 02:33:10;;;;;;;29.18;13.10;;;;;;;-0.06;77.31;101784.00;1802936;79;21363;-61
2021/10/20 02:36:17;;;;;;;27.87;14.83;;;;;;;-0.09;77.11;101784.61;1802917;79;21374;-61
2021/10/20 02:39:23;;;;;;;31.17;14.87;;;;;;;-0.14;77.04;101783.95;1803688;79;21336;-59
2021/10/20 02:42:32;;;;;;;28.98;14.45;;;;;;;-0.17;77.10;101785.45;1802686;79;21198;-60
2021/10/20 02:45:37;;;;;;;25.72;13.90;;;;;;;-0.21;76.84;101787.91;1802914;79;21382;-61
2021/10/20 02:48:44;;;;;;;36.83;16.05;;;;;;;-0.27;76.84;101789.06;1803006;79;21253;-60
2021/10/20 02:51:50;;;;;;;30.60;15.15;;;;;;;-0.34;76.69;101792.13;1803015;79;21817;-60
2021/10/20 02:54:56;;;;;;;33.02;14.75;;;;;;;-0.37;76.88;101786.89;1803316;79;21197;-60
2021/10/20 02:58:02;;;;;;;29.18;13.95;;;;;;;-0.37;77.14;101790.47;1802977;79;21382;-62
2021/10/20 03:01:10;;;;;;;26.68;13.93;;;;;;;-0.35;77.28;101790.39;1803283;79;21331;-59
2021/10/20 03:04:16;;;;;;;23.80;12.73;;;;;;;-0.37;77.19;101803.03;1803039;79;21175;-60
2021/10/20 03:07:23;;;;;;;23.10;12.95;;;;;;;-0.42;76.97;101811.32;1803116;79;21363;-60
2021/10/20 03:10:31;;;;;;;26.02;14.70;;;;;;;-0.44;77.13;101815.01;1803217;79;21189;-60
2021/10/20 03:13:36;;;;;;;26.87;15.18;;;;;;;-0.47;77.13;101816.03;1802851;79;21268;-58
2021/10/20 03:16:43;;;;;;;32.67;15.75;;;;;;;-0.48;77.22;101813.42;1801687;79;21371;-58
2021/10/20 03:19:51;;;;;;;27.77;16.27;;;;;;;-0.46;77.42;101817.77;1803473;79;21817;-60
2021/10/20 03:22:57;;;;;;;25.95;15.43;;;;;;;-0.43;77.50;101827.53;1802986;79;21320;-60
2021/10/20 03:26:02;;;;;;;27.30;16.02;;;;;;;-0.45;77.33;101832.98;1803266;79;21328;-58
2021/10/20 03:29:08;;;;;;;26.23;15.05;;;;;;;-0.46;77.36;101832.56;1802849;79;21332;-59
2021/10/20 03:32:13;;;;;;;23.47;14.23;;;;;;;-0.44;77.53;101835.18;1803227;79;21259;-59
2021/10/20 03:35:20;;;;;;;27.07;14.73;;;;;;;-0.41;77.54;101837.72;1802990;79;21833;-59
2021/10/20 03:38:29;;;;;;;23.57;13.18;;;;;;;-0.42;77.51;101841.37;1802800;79;21344;-59
2021/10/20 03:41:35;;;;;;;29.20;14.38;;;;;;;-0.45;77.37;101842.86;1802869;79;21363;-59
2021/10/20 03:44:40;;;;;;;23.70;12.88;;;;;;;-0.51;77.20;101843.15;1802956;79;21391;-58
2021/10/20 03:47:46;;;;;;;24.52;12.88;;;;;;;-0.59;77.06;101846.66;1795682;79;21375;-59
2021/10/20 03:50:52;;;;;;;27.07;12.53;;;;;;;-0.64;77.08;101856.28;1803346;79;21213;-60
2021/10/20 03:53:59;;;;;;;28.50;13.55;;;;;;;-0.67;77.18;101860.45;1802510;79;21257;-59
2021/10/20 03:57:04;;;;;;;24.05;13.13;;;;;;;-0.67;77.48;101854.20;1803215;79;21215;-60
2021/10/20 04:00:20;;;;;;;28.85;13.32;;;;;;;-0.64;77.57;101860.77;1802947;79;21324;-59
2021/10/20 04:03:26;;;;;;;33.20;16.00;;;;;;;-0.63;77.62;101861.16;1796300;79;21351;-60
2021/10/20 04:06:32;;;;;;;25.95;15.38;;;;;;;-0.65;77.54;101872.48;1802765;79;21355;-60
2021/10/20 04:09:38;;;;;;;31.62;18.12;;;;;;;-0.65;77.59;101876.52;1795365;79;21205;-60
2021/10/20 04:12:47;;;;;;;34.38;20.10;;;;;;;-0.65;77.60;101879.20;1802941;79;21394;-60
2021/10/20 04:15:53;;;;;;;37.78;21.25;;;;;;;-0.62;77.82;101866.97;1803001;79;21402;-60
2021/10/20 04:19:00;;;;;;;41.02;22.93;;;;;;;-0.60;77.72;101870.44;1802262;79;21382;-59
2021/10/20 04:22:06;;;;;;;42.80;24.25;;;;;;;-0.61;77.64;101875.42;1803010;79;21813;-60
2021/10/20 04:25:16;;;;;;;39.80;23.02;;;;;;;-0.59;77.72;101882.96;1803084;79;21197;-59
2021/10/20 04:28:23;;;;;;;39.63;21.15;;;;;;;-0.57;77.68;101897.22;1802977;79;21287;-60
2021/10/20 04:31:29;;;;;;;40.78;21.87;;;;;;;-0.56;77.80;101876.98;1802992;79;21351;-59
2021/10/20 04:34:37;;;;;;;44.50;21.70;;;;;;;-0.51;77.85;101884.34;1804281;79;21351;-60
2021/10/20 04:37:43;;;;;;;43.13;21.73;;;;;;;-0.49;77.74;101880.27;1802701;79;21237;-60
2021/10/20 04:40:49;;;;;;;35.85;17.65;;;;;;;-0.46;77.69;101900.30;1802377;79;21355;-59
2021/10/20 04:43:55;;;;;;;32.35;17.37;;;;;;;-0.43;77.79;101896.12;1802572;79;21355;-59
2021/10/20 04:47:00;;;;;;;35.50;17.37;;;;;;;-0.36;77.82;101893.53;1781840;79;21371;-60
2021/10/20 04:50:07;;;;;;;32.60;17.80;;;;;;;-0.36;77.44;101898.91;1771168;79;21547;-60
2021/10/20 04:53:13;;;;;;;38.90;18.35;;;;;;;-0.36;77.40;101902.48;1787893;79;21676;-60
2021/10/20 04:56:19;;;;;;;32.80;18.85;;;;;;;-0.28;77.64;101896.29;1802131;79;21343;-60
2021/10/20 04:59:27;;;;;;;36.73;19.92;;;;;;;-0.18;77.69;101889.55;1801434;79;21356;-60
2021/10/20 05:02:46;;;;;;;37.48;19.75;;;;;;;-0.05;77.37;101894.73;1852992;76;22254;-60
2021/10/20 05:05:51;;;;;;;56.45;28.65;;;;;;;-0.06;77.35;101898.84;1794814;78;21430;-60
2021/10/20 05:08:59;;;;;;;50.35;28.57;;;;;;;0.04;77.64;101906.90;1804370;79;21274;-60
2021/10/20 05:12:06;;;;;;;56.18;27.35;;;;;;;0.16;77.85;101904.95;1779967;79;21725;-60
2021/10/20 05:15:13;;;;;;;53.80;26.93;;;;;;;0.30;78.05;101910.59;1695410;83;21279;-59
2021/10/20 05:18:18;;;;;;;66.35;32.60;;;;;;;0.45;78.05;101907.59;1787122;78;21224;-61
2021/10/20 05:21:23;;;;;;;210.38;81.87;;;;;;;0.60;77.98;101904.17;1801914;79;21534;-61
2021/10/20 05:24:30;;;;;;;162.97;69.40;;;;;;;0.75;77.88;101898.00;1801190;79;22121;-61
2021/10/20 05:27:36;;;;;;;141.15;59.98;;;;;;;0.91;77.64;101906.60;1802266;79;21201;-61
2021/10/20 05:30:43;;;;;;;94.30;42.40;;;;;;;1.05;77.65;101900.03;1799916;79;21351;-60
2021/10/20 05:33:51;;;;;;;67.17;31.20;;;;;;;1.25;77.82;101901.20;1799868;79;21382;-61
2021/10/20 05:36:58;;;;;;;49.45;27.35;;;;;;;1.44;77.91;101910.08;1801818;79;21162;-62
2021/10/20 05:40:03;;;;;;;42.08;21.80;;;;;;;1.65;77.91;101922.06;1801276;79;21257;-61
2021/10/20 05:43:08;;;;;;;38.10;20.70;;;;;;;1.85;77.83;101920.50;1802174;79;21763;-61
2021/10/20 05:46:16;;;;;;;41.77;21.55;;;;;;;2.03;77.56;101920.86;1802632;79;21351;-62
2021/10/20 05:49:23;;;;;;;40.90;21.77;;;;;;;2.19;77.22;101921.77;1801118;79;21758;-61
2021/10/20 05:52:30;;;;;;;53.35;27.87;;;;;;;2.32;76.84;101920.98;1774917;79;21320;-61
2021/10/20 05:55:40;;;;;;;83.47;40.75;;;;;;;2.45;76.55;101918.45;1768556;79;21248;-63
2021/10/20 05:58:44;;;;;;;86.65;42.30;;;;;;;2.55;76.28;101918.34;1771932;79;21711;-64
2021/10/20 06:01:50;;;;;;;88.82;43.60;;;;;;;2.67;76.18;101921.20;1769686;80;21697;-62
2021/10/20 06:04:57;;;;;;;78.17;36.17;;;;;;;2.81;75.99;101917.69;1779386;79;21205;-61
2021/10/20 06:08:03;;;;;;;109.10;57.20;;;;;;;2.94;75.72;101922.78;1800317;79;21145;-63
2021/10/20 06:11:09;;;;;;;65.45;32.50;;;;;;;3.03;75.42;101924.94;1801773;79;21362;-62
2021/10/20 06:14:16;;;;;;;55.00;28.07;;;;;;;3.12;75.11;101932.53;1800584;79;21546;-62
2021/10/20 06:17:22;;;;;;;51.08;24.70;;;;;;;3.16;74.93;101930.02;1801721;79;21351;-62
2021/10/20 06:20:27;;;;;;;41.50;21.40;;;;;;;3.21;74.89;101929.27;1798958;79;21957;-61
2021/10/20 06:23:32;;;;;;;31.57;16.40;;;;;;;3.24;74.85;101926.38;1802630;79;21817;-61
2021/10/20 06:26:40;;;;;;;22.58;13.50;;;;;;;3.26;74.87;101929.87;1803538;78;21227;-62
2021/10/20 06:29:47;;;;;;;23.18;12.82;;;;;;;3.27;74.93;101917.22;1770918;80;21715;-61
2021/10/20 06:32:53;;;;;;;27.10;15.10;;;;;;;3.29;74.89;101917.98;1769787;80;21218;-62
2021/10/20 06:36:02;;;;;;;39.63;21.30;;;;;;;3.26;74.72;101914.98;1796101;78;21255;-61
2021/10/20 06:39:09;;;;;;;100.92;43.68;;;;;;;3.30;74.78;101911.63;1805700;78;21578;-61
2021/10/20 06:42:14;;;;;;;109.15;48.85;;;;;;;3.34;74.83;101918.58;1825596;78;21513;-63
2021/10/20 06:45:21;;;;;;;170.77;89.85;;;;;;;3.41;74.95;101928.93;1811980;78;21414;-62
2021/10/20 06:48:28;;;;;;;89.52;45.58;;;;;;;3.54;75.02;101930.41;1770646;80;21820;-61
2021/10/20 06:51:36;;;;;;;50.70;25.62;;;;;;;3.72;75.06;101935.59;1779504;79;21165;-62
2021/10/20 06:54:41;;;;;;;43.17;21.85;;;;;;;3.93;74.96;101919.34;1785546;79;21189;-62
2021/10/20 06:57:47;;;;;;;34.53;18.05;;;;;;;4.14;74.71;101896.31;1784820;79;21230;-62
2021/10/20 07:00:54;;;;;;;35.28;17.45;;;;;;;4.34;74.53;101895.89;1786037;79;21751;-62
2021/10/20 07:04:01;;;;;;;30.68;16.65;;;;;;;4.55;74.34;101897.21;1782779;77;21670;-62
2021/10/20 07:07:15;;;;;;;19.65;11.30;;;;;;;4.87;74.17;101896.94;1785289;79;21703;-63
2021/10/20 07:10:21;;;;;;;20.77;10.68;;;;;;;5.21;74.05;101895.03;1794994;78;21262;-64
2021/10/20 07:13:31;;;;;;;32.95;19.27;;;;;;;5.54;73.85;101880.47;1793176;79;21341;-63
2021/10/20 07:16:41;;;;;;;15.43;9.83;;;;;;;5.83;73.17;101887.48;1795718;78;21832;-63
2021/10/20 07:19:47;;;;;;;12.15;6.90;;;;;;;6.11;72.22;101877.72;1776983;79;21356;-62
2021/10/20 07:22:54;;;;;;;15.88;7.35;;;;;;;6.34;70.98;101881.49;1769964;80;21203;-63
2021/10/20 07:26:01;;;;;;;15.93;7.03;;;;;;;6.54;69.25;101874.96;1769939;80;21341;-63
2021/10/20 07:29:10;;;;;;;13.22;6.95;;;;;;;6.70;67.96;101863.80;1771190;80;22234;-63
2021/10/20 07:32:18;;;;;;;14.50;8.45;;;;;;;6.86;67.07;101859.82;1790531;79;22126;-63
2021/10/20 07:35:25;;;;;;;16.32;8.53;;;;;;;7.02;66.48;101852.22;1801383;79;21900;-64
2021/10/20 07:38:32;;;;;;;16.15;8.78;;;;;;;7.20;65.70;101847.19;1818604;78;21860;-64
2021/10/20 07:41:39;;;;;;;13.55;7.78;;;;;;;7.37;65.37;101843.53;1760199;81;21383;-65
2021/10/20 07:44:48;;;;;;;8.23;5.42;;;;;;;7.55;65.17;101843.46;1811912;78;21387;-64
2021/10/20 07:47:56;;;;;;;11.85;4.87;;;;;;;7.71;64.91;101837.66;1806614;78;21359;-64
2021/10/20 07:51:05;;;;;;;11.15;4.28;;;;;;;7.86;64.40;101841.02;1790817;78;21771;-64
2021/10/20 07:54:12;;;;;;;14.30;7.83;;;;;;;8.00;63.69;101838.92;1782803;79;21170;-62
2021/10/20 07:57:17;;;;;;;17.20;8.45;;;;;;;8.21;63.25;101839.92;1783112;79;21199;-62
2021/10/20 08:00:31;;;;;;;19.17;12.35;;;;;;;8.41;61.89;101832.84;1787413;79;21387;-62
2021/10/20 08:03:41;;;;;;;5.95;3.70;;;;;;;8.61;60.28;101832.07;1802756;78;22157;-64
2021/10/20 08:07:02;;;;;;;7.83;3.47;;;;;;;8.79;59.66;101834.13;1740728;80;21229;-63
2021/10/20 08:10:11;;;;;;;6.72;2.30;;;;;;;8.97;58.55;101831.70;1758553;80;21260;-62
2021/10/20 08:13:20;;;;;;;7.33;3.02;;;;;;;9.17;57.86;101829.98;1755796;80;21906;-62
2021/10/20 08:16:26;;;;;;;4.85;2.70;;;;;;;9.29;56.70;101832.55;1749329;80;21184;-62
2021/10/20 08:19:35;;;;;;;4.65;2.65;;;;;;;9.40;55.58;101843.42;1757727;80;21284;-63
2021/10/20 08:22:44;;;;;;;4.60;2.70;;;;;;;9.52;54.60;101837.36;1754997;81;21335;-61
2021/10/20 08:25:51;;;;;;;4.95;3.12;;;;;;;9.54;53.55;101843.08;1765489;80;21397;-62
2021/10/20 08:28:58;;;;;;;5.50;2.67;;;;;;;9.60;53.09;101832.97;1749615;80;21665;-63
2021/10/20 08:32:03;;;;;;;6.15;2.70;;;;;;;9.68;52.56;101834.53;1762916;80;21752;-63
2021/10/20 08:35:08;;;;;;;6.62;3.00;;;;;;;9.76;51.96;101827.02;1743764;80;21178;-63
2021/10/20 08:38:15;;;;;;;4.70;2.90;;;;;;;9.79;51.63;101826.25;1753137;81;21196;-63
2021/10/20 08:41:23;;;;;;;5.15;3.12;;;;;;;9.89;51.79;101829.03;1750886;81;21219;-62
2021/10/20 08:44:31;;;;;;;6.00;3.08;;;;;;;9.94;51.43;101828.12;1751057;80;21349;-63
2021/10/20 08:47:39;;;;;;;5.33;3.02;;;;;;;10.00;51.39;101832.56;1759283;80;21168;-63
2021/10/20 08:50:51;;;;;;;6.78;3.70;;;;;;;10.07;51.12;101836.95;1753324;80;21363;-62
2021/10/20 08:53:58;;;;;;;6.08;2.75;;;;;;;10.12;51.11;101841.06;1734764;81;21733;-62
2021/10/20 08:57:10;;;;;;;5.22;2.85;;;;;;;10.12;50.93;101836.95;1753445;81;21208;-63
2021/10/20 09:00:19;;;;;;;3.67;2.20;;;;;;;10.09;50.66;101837.23;1750457;80;21215;-62
2021/10/20 09:03:25;;;;;;;5.47;2.77;;;;;;;9.97;50.24;101833.33;1744175;80;21219;-62
2021/10/20 09:06:41;;;;;;;7.08;2.47;;;;;;;9.79;50.25;101830.35;1782137;77;21207;-61
2021/10/20 09:10:18;;;;;;;4.45;2.30;;;;;;;9.73;51.04;101830.90;1785673;78;21538;-61
2021/10/20 09:13:25;;;;;;;4.65;2.15;;;;;;;9.79;50.76;101825.38;1800433;78;21197;-61
2021/10/20 09:16:32;;;;;;;5.05;3.00;;;;;;;9.77;50.06;101806.37;1780520;78;21373;-61
2021/10/20 09:19:39;;;;;;;5.95;2.80;;;;;;;9.81;50.12;101802.86;1795980;78;21418;-61
2021/10/20 09:23:10;;;;;;;7.45;3.52;;;;;;;9.86;50.35;101801.44;1783886;78;21900;-62
2021/10/20 09:26:16;;;;;;;5.83;2.05;;;;;;;9.94;49.95;101807.09;1785910;79;21767;-63
2021/10/20 09:29:35;;;;;;;3.95;2.35;;;;;;;9.95;49.27;101807.48;1789078;78;21180;-59
2021/10/20 09:32:41;;;;;;;5.87;2.27;;;;;;;9.94;48.48;101807.09;1785122;79;21203;-60
2021/10/20 09:35:51;;;;;;;4.62;2.85;;;;;;;9.95;48.80;101792.43;1779164;79;21169;-62
2021/10/20 09:38:57;;;;;;;4.33;2.58;;;;;;;10.01;49.14;101790.50;1742606;81;22004;-64
2021/10/20 09:42:20;;;;;;;7.20;2.80;;;;;;;10.11;49.25;101792.81;1786277;79;21696;-62
2021/10/20 09:45:31;;;;;;;6.58;4.10;;;;;;;10.20;49.13;101791.10;1788296;78;21209;-61
2021/10/20 09:48:36;;;;;;;6.55;3.47;;;;;;;10.24;48.51;101791.20;1785439;79;21688;-62
2021/10/20 09:51:47;;;;;;;5.28;2.67;;;;;;;10.32;48.59;101775.80;1785487;79;21190;-61
2021/10/20 09:55:00;;;;;;;4.28;2.15;;;;;;;10.45;47.72;101787.36;1787411;79;21240;-61
2021/10/20 09:58:24;;;;;;;4.85;2.55;;;;;;;10.55;46.84;101781.41;1754889;81;21237;-61
2021/10/20 10:01:33;;;;;;;4.95;2.20;;;;;;;10.69;46.91;101771.05;1788151;79;21198;-60
2021/10/20 10:04:41;;;;;;;6.10;3.05;;;;;;;10.88;46.72;101765.06;1785504;79;21588;-61
2021/10/20 10:07:48;;;;;;;3.85;2.30;;;;;;;11.04;46.17;101755.75;1775501;79;21691;-60
2021/10/20 10:10:53;;;;;;;4.15;2.33;;;;;;;11.15;46.14;101758.83;1772670;80;21343;-60
2021/10/20 10:14:02;;;;;;;4.30;2.25;;;;;;;11.21;46.29;101745.94;1777316;80;21303;-60
2021/10/20 10:17:31;;;;;;;6.10;2.62;;;;;;;11.26;45.52;101727.14;1787869;80;21174;-59
2021/10/20 10:20:50;;;;;;;6.05;3.02;;;;;;;11.25;45.07;101718.08;1757358;81;21213;-62
2021/10/20 10:24:05;;;;;;;6.35;3.00;;;;;;;11.29;45.55;101713.17;1758524;81;21338;-63
2021/10/20 10:27:15;;;;;;;6.03;2.70;;;;;;;11.37;45.16;101709.19;1772204;79;21718;-62
2021/10/20 10:30:26;;;;;;;6.15;3.15;;;;;;;11.46;44.72;101705.55;1788354;80;21331;-61
2021/10/20 10:33:41;;;;;;;6.58;3.35;;;;;;;11.55;44.26;101700.02;1788731;80;21178;-60
2021/10/20 10:36:44;;;;;;;7.35;4.08;;;;;;;11.66;44.19;101701.24;1787906;80;21327;-60
2021/10/20 10:39:54;;;;;;;8.88;4.30;;;;;;;11.78;44.17;101700.55;1753988;80;21885;-61
2021/10/20 10:43:01;;;;;;;7.60;3.15;;;;;;;11.84;42.73;101703.52;1773084;80;21205;-61
2021/10/20 10:46:08;;;;;;;5.60;2.72;;;;;;;11.86;42.98;101691.89;1757575;80;21197;-60
2021/10/20 10:49:34;;;;;;;4.45;2.60;;;;;;;11.96;43.31;101698.70;1762849;80;21383;-61
2021/10/20 10:52:45;;;;;;;8.05;4.20;;;;;;;12.06;42.88;101692.66;1795051;79;21335;-62
2021/10/20 10:56:09;;;;;;;6.20;2.90;;;;;;;12.20;42.79;101686.64;1788302;80;21327;-60
2021/10/20 10:59:16;;;;;;;9.95;5.50;;;;;;;12.38;43.62;101683.92;1787969;80;21177;-59
2021/10/20 11:02:51;;;;;;;6.85;3.62;;;;;;;12.59;42.70;101681.74;1773806;80;21320;-61
2021/10/20 11:06:08;;;;;;;6.28;3.30;;;;;;;12.71;42.99;101676.34;1788103;80;21264;-59
2021/10/20 11:09:16;;;;;;;7.42;3.92;;;;;;;12.82;42.42;101681.09;1800197;77;21280;-59
2021/10/20 11:12:22;;;;;;;10.98;5.20;;;;;;;12.94;42.13;101674.31;1729128;81;21180;-60
2021/10/20 11:15:29;;;;;;;10.68;4.17;;;;;;;13.05;41.45;101656.22;1721324;83;21221;-60
2021/10/20 11:18:36;;;;;;;6.50;2.92;;;;;;;13.19;42.27;101652.88;1721991;83;21194;-60
2021/10/20 11:21:44;;;;;;;9.33;5.08;;;;;;;13.36;41.74;101643.73;1749548;81;21775;-62
2021/10/20 11:24:53;;;;;;;14.65;5.03;;;;;;;13.39;40.49;101646.14;1801939;78;21522;-61
2021/10/20 11:28:01;;;;;;;6.58;3.47;;;;;;;13.39;40.22;101643.39;1814858;78;21745;-61
2021/10/20 11:31:16;;;;;;;7.58;2.95;;;;;;;13.53;40.09;101620.77;1824992;78;21757;-60
2021/10/20 11:34:30;;;;;;;6.47;3.20;;;;;;;13.72;40.13;101613.25;1825225;78;21162;-59
2021/10/20 11:37:35;;;;;;;22.82;10.28;;;;;;;13.76;39.53;101610.03;1825394;78;21427;-61
2021/10/20 11:40:47;;;;;;;7.95;3.12;;;;;;;13.83;39.23;101614.33;1825665;78;21335;-60
2021/10/20 11:43:52;;;;;;;4.70;2.47;;;;;;;13.94;39.11;101609.92;1825669;78;21229;-61
2021/10/20 11:46:57;;;;;;;11.38;3.47;;;;;;;14.04;38.45;101606.48;1825465;78;21575;-61
2021/10/20 11:50:04;;;;;;;4.45;2.10;;;;;;;14.07;38.32;101611.66;1825123;78;21204;-62
2021/10/20 11:53:14;;;;;;;5.58;2.02;;;;;;;14.16;37.55;101614.26;1809670;78;21637;-59
2021/10/20 11:56:20;;;;;;;4.75;2.00;;;;;;;14.30;37.27;101607.27;1825038;78;21712;-61
2021/10/20 11:59:30;;;;;;;6.03;2.80;;;;;;;14.40;36.44;101594.18;1825935;78;21150;-60
2021/10/20 12:02:38;;;;;;;6.30;2.62;;;;;;;14.57;36.61;101592.64;1826273;78;21300;-60
2021/10/20 12:05:46;;;;;;;5.17;2.90;;;;;;;14.70;35.96;101582.47;1827040;78;21789;-61
2021/10/20 12:08:53;;;;;;;8.18;2.62;;;;;;;14.73;35.63;101572.50;1828241;76;21296;-59
2021/10/20 12:12:01;;;;;;;7.30;3.40;;;;;;;14.74;35.47;101571.45;1827444;78;21360;-61
2021/10/20 12:15:08;;;;;;;8.53;3.90;;;;;;;14.73;35.08;101576.09;1827463;78;21320;-60
2021/10/20 12:18:14;;;;;;;7.97;3.50;;;;;;;14.70;34.90;101572.82;1808395;78;21186;-63
2021/10/20 12:21:22;;;;;;;8.85;3.50;;;;;;;14.66;35.19;101570.95;1796923;79;21320;-60
2021/10/20 12:24:30;;;;;;;11.95;5.25;;;;;;;14.58;35.50;101566.82;1810526;78;21320;-59
2021/10/20 12:27:37;;;;;;;8.15;3.37;;;;;;;14.48;35.91;101558.36;1804589;78;21339;-60
2021/10/20 12:30:44;;;;;;;7.30;3.30;;;;;;;14.53;36.11;101543.56;1820608;78;21855;-60
2021/10/20 12:33:55;;;;;;;6.15;3.33;;;;;;;14.63;36.23;101544.25;1811287;78;21201;-61
2021/10/20 12:37:01;;;;;;;7.67;4.20;;;;;;;14.60;36.63;101529.44;1827497;78;21422;-59
2021/10/20 12:40:21;;;;;;;9.38;2.98;;;;;;;14.50;36.80;101531.50;1811669;78;21394;-61
2021/10/20 12:43:27;;;;;;;9.73;2.95;;;;;;;14.55;36.87;101531.85;1826682;78;21351;-60
2021/10/20 12:46:33;;;;;;;6.37;3.12;;;;;;;14.67;36.69;101529.94;1779469;78;21319;-60
2021/10/20 12:49:42;;;;;;;9.63;3.33;;;;;;;14.71;36.37;101535.43;1793376;78;21328;-61
2021/10/20 12:52:52;;;;;;;5.03;2.83;;;;;;;14.76;36.79;101531.64;1774209;79;21376;-61
2021/10/20 12:56:00;;;;;;;9.85;3.92;;;;;;;14.79;36.28;101538.72;1773145;80;21179;-59
2021/10/20 12:59:29;;;;;;;5.78;3.08;;;;;;;14.84;35.29;101539.06;1742918;81;21333;-60
2021/10/20 13:02:39;;;;;;;5.75;2.77;;;;;;;14.89;35.18;101526.95;1772557;80;21360;-60
2021/10/20 13:05:59;;;;;;;5.55;2.98;;;;;;;14.96;34.71;101541.77;1773879;80;21198;-61
2021/10/20 13:09:09;;;;;;;7.62;3.05;;;;;;;14.99;34.01;101537.28;1773254;80;21759;-60
2021/10/20 13:12:15;;;;;;;6.55;3.40;;;;;;;14.96;32.39;101538.51;1720184;82;21174;-60
2021/10/20 13:15:22;;;;;;;9.68;4.42;;;;;;;14.95;32.35;101529.03;1692453;84;21396;-60
2021/10/20 13:18:29;;;;;;;8.68;4.75;;;;;;;14.94;31.64;101531.43;1745089;81;21170;-59
2021/10/20 13:21:35;;;;;;;12.78;4.60;;;;;;;14.94;31.59;101534.19;1720911;83;21213;-59
2021/10/20 13:24:43;;;;;;;8.15;3.55;;;;;;;14.98;32.09;101524.00;1732830;82;21340;-60
2021/10/20 13:27:50;;;;;;;5.20;3.25;;;;;;;14.97;31.93;101506.26;1749125;82;21634;-60
2021/10/20 13:30:55;;;;;;;12.13;5.12;;;;;;;14.88;31.93;101508.70;1749351;82;21371;-61
2021/10/20 13:34:01;;;;;;;16.42;6.95;;;;;;;14.72;32.25;101505.47;1749174;82;21388;-60
2021/10/20 13:37:08;;;;;;;15.50;10.10;;;;;;;14.59;32.44;101500.14;1757049;81;21266;-61
2021/10/20 13:40:16;;;;;;;14.70;10.82;;;;;;;14.52;31.87;101493.63;1751951;81;21430;-60
2021/10/20 13:43:23;;;;;;;14.30;10.82;;;;;;;14.43;32.06;101494.67;1749621;82;21340;-59
2021/10/20 13:46:37;;;;;;;19.00;12.15;;;;;;;14.33;31.87;101480.20;1883926;76;22583;-59
2021/10/20 13:49:44;;;;;;;22.50;14.70;;;;;;;14.10;32.44;101481.88;1843456;78;21350;-62
2021/10/20 13:52:53;;;;;;;23.38;14.87;;;;;;;13.88;32.77;101486.69;1827970;78;21343;-61
2021/10/20 13:56:03;;;;;;;25.82;20.10;;;;;;;13.70;32.97;101488.75;1843606;78;21895;-61
2021/10/20 13:59:10;;;;;;;26.95;20.12;;;;;;;13.52;33.27;101491.09;1771772;80;21244;-61
2021/10/20 14:02:19;;;;;;;27.22;20.97;;;;;;;13.37;33.75;101491.41;1815823;77;21757;-60
2021/10/20 14:05:28;;;;;;;26.15;20.20;;;;;;;13.20;33.90;101488.76;1809856;78;21354;-61
2021/10/20 14:08:34;;;;;;;30.60;26.82;;;;;;;13.03;34.12;101484.22;1809339;79;21327;-62
2021/10/20 14:11:41;;;;;;;23.92;17.15;;;;;;;12.87;34.50;101480.85;1809366;79;21686;-61
2021/10/20 14:14:49;;;;;;;22.17;12.98;;;;;;;12.72;34.47;101482.97;1811816;78;21729;-61
2021/10/20 14:17:54;;;;;;;18.55;10.88;;;;;;;12.58;34.82;101487.20;1809412;79;21339;-62
2021/10/20 14:21:00;;;;;;;18.82;10.15;;;;;;;12.47;35.03;101480.59;1829316;77;21679;-61
2021/10/20 14:24:06;;;;;;;14.63;8.48;;;;;;;12.34;35.64;101482.03;1841682;78;21227;-62
2021/10/20 14:27:12;;;;;;;17.90;9.15;;;;;;;12.21;35.92;101478.33;1817650;78;22164;-63